createdAt,value
2023-07-17T00:02:14.916Z,5.18
2023-07-17T00:04:49.323Z,5.88
2023-07-17T00:07:19.193Z,5.47
2023-07-17T00:09:47.536Z,5.68
2023-07-17T00:12:21.137Z,5.88
2023-07-17T00:14:54.967Z,4.75
2023-07-17T00:17:22.220Z,4.70
2023-07-17T00:20:03.018Z,5.65
2023-07-17T00:22:32.827Z,6.03
2023-07-17T00:25:00.727Z,5.45
2023-07-17T00:27:34.048Z,4.70
2023-07-17T00:30:08.064Z,5.80
2023-07-17T00:32:48.145Z,5.45
2023-07-17T00:35:15.408Z,5.47
2023-07-17T00:37:43.409Z,5.57
2023-07-17T00:40:17.183Z,5.90
2023-07-17T00:42:44.415Z,6.07
2023-07-17T00:45:11.642Z,6.85
2023-07-17T00:47:53.129Z,5.95
2023-07-17T00:50:20.425Z,6.00
2023-07-17T00:52:54.180Z,6.25
2023-07-17T00:55:21.507Z,5.28
2023-07-17T00:57:49.754Z,5.50
2023-07-17T01:00:24.089Z,6.80
2023-07-17T01:02:54.460Z,5.80
2023-07-17T01:05:28.306Z,6.00
2023-07-17T01:07:56.717Z,6.20
2023-07-17T01:10:24.612Z,6.05
2023-07-17T01:12:58.050Z,5.80
2023-07-17T01:15:25.288Z,5.97
2023-07-17T01:17:59.338Z,5.80
2023-07-17T01:20:26.629Z,6.22
2023-07-17T01:23:08.249Z,5.78
2023-07-17T01:25:35.619Z,5.25
2023-07-17T01:28:02.786Z,6.20
2023-07-17T01:30:36.233Z,6.13
2023-07-17T01:33:03.950Z,5.65
2023-07-17T01:35:38.140Z,6.43
2023-07-17T01:38:05.342Z,5.32
2023-07-17T01:40:32.544Z,6.70
2023-07-17T01:43:06.125Z,6.13
2023-07-17T01:45:33.325Z,5.85
2023-07-17T01:48:07.346Z,6.25
2023-07-17T01:50:34.594Z,6.32
2023-07-17T01:53:01.746Z,5.45
2023-07-17T01:55:35.130Z,6.63
2023-07-17T01:58:02.389Z,5.70
2023-07-17T02:00:29.682Z,4.88
2023-07-17T02:03:03.211Z,6.60
2023-07-17T02:05:30.554Z,6.18
2023-07-17T02:08:04.121Z,7.10
2023-07-17T02:10:31.584Z,5.90
2023-07-17T02:12:58.709Z,6.20
2023-07-17T02:15:33.093Z,5.93
2023-07-17T02:18:00.331Z,5.85
2023-07-17T02:20:34.232Z,6.05
2023-07-17T02:23:01.482Z,6.18
2023-07-17T02:25:29.506Z,6.18
2023-07-17T02:28:04.177Z,6.43
2023-07-17T02:30:52.023Z,6.28
2023-07-17T02:33:26.263Z,6.85
2023-07-17T02:35:53.539Z,6.07
2023-07-17T02:38:20.687Z,6.07
2023-07-17T02:40:55.341Z,5.22
2023-07-17T02:43:22.643Z,6.95
2023-07-17T02:45:50.025Z,5.93
2023-07-17T02:48:24.233Z,5.95
2023-07-17T02:50:52.160Z,7.50
2023-07-17T02:53:26.199Z,8.18
2023-07-17T02:55:53.518Z,6.60
2023-07-17T02:58:22.631Z,7.22
2023-07-17T03:00:56.131Z,6.22
2023-07-17T03:03:23.523Z,6.80
2023-07-17T03:05:57.050Z,7.43
2023-07-17T03:08:31.154Z,6.93
2023-07-17T03:11:05.022Z,7.90
2023-07-17T03:13:39.138Z,7.20
2023-07-17T03:16:13.068Z,7.55
2023-07-17T03:18:47.156Z,7.03
2023-07-17T03:21:14.345Z,6.72
2023-07-17T03:23:41.579Z,7.32
2023-07-17T03:26:15.162Z,7.50
2023-07-17T03:28:42.380Z,7.03
2023-07-17T03:31:22.337Z,7.65
2023-07-17T03:33:49.694Z,6.68
2023-07-17T03:36:17.098Z,7.10
2023-07-17T03:38:51.166Z,6.88
2023-07-17T03:41:21.486Z,7.50
2023-07-17T03:43:55.172Z,7.35
2023-07-17T03:46:22.427Z,7.20
2023-07-17T03:48:49.557Z,6.63
2023-07-17T03:51:23.307Z,6.43
2023-07-17T03:53:51.645Z,6.70
2023-07-17T03:56:18.793Z,7.00
2023-07-17T03:58:55.169Z,7.38
2023-07-17T04:01:22.502Z,6.35
2023-07-17T04:03:56.388Z,7.40
2023-07-17T04:06:23.782Z,6.78
2023-07-17T04:08:50.938Z,6.78
2023-07-17T04:11:25.216Z,7.38
2023-07-17T04:13:53.599Z,7.00
2023-07-17T04:16:22.065Z,7.45
2023-07-17T04:18:56.266Z,6.88
2023-07-17T04:21:23.507Z,5.78
2023-07-17T04:23:59.360Z,7.88
2023-07-17T04:26:26.599Z,6.47
2023-07-17T04:28:54.100Z,7.22
2023-07-17T04:31:35.444Z,8.10
2023-07-17T04:34:02.740Z,8.35
2023-07-17T04:36:36.148Z,7.15
2023-07-17T04:39:06.109Z,6.68
2023-07-17T04:41:33.417Z,7.32
2023-07-17T04:44:07.239Z,7.00
2023-07-17T04:46:35.892Z,7.57
2023-07-17T04:49:10.234Z,8.02
2023-07-17T04:51:37.420Z,7.63
2023-07-17T04:54:04.886Z,7.63
2023-07-17T04:59:06.798Z,7.35
2023-07-17T05:04:07.858Z,7.10
2023-07-17T05:09:09.302Z,6.55
2023-07-17T05:11:36.769Z,8.73
2023-07-17T05:14:10.124Z,7.85
2023-07-17T05:16:37.636Z,8.75
2023-07-17T05:21:38.104Z,8.18
2023-07-17T05:24:05.467Z,8.15
2023-07-17T05:26:32.657Z,8.02
2023-07-17T05:29:06.108Z,9.45
2023-07-17T05:31:41.279Z,9.07
2023-07-17T05:34:15.120Z,9.88
2023-07-17T05:36:42.404Z,9.63
2023-07-17T05:39:09.615Z,8.13
2023-07-17T05:41:44.257Z,9.63
2023-07-17T05:44:11.529Z,10.68
2023-07-17T05:46:38.688Z,8.70
2023-07-17T05:49:12.172Z,10.35
2023-07-17T05:51:39.468Z,10.82
2023-07-17T05:54:14.307Z,10.05
2023-07-17T05:56:41.678Z,9.13
2023-07-17T05:59:08.860Z,8.27
2023-07-17T06:01:42.296Z,9.23
2023-07-17T06:04:09.722Z,8.20
2023-07-17T06:09:10.436Z,9.77
2023-07-17T06:11:37.577Z,8.13
2023-07-17T06:14:11.138Z,9.07
2023-07-17T06:16:38.422Z,7.45
2023-07-17T06:19:12.135Z,7.55
2023-07-17T06:21:39.430Z,8.45
2023-07-17T06:24:10.005Z,7.30
2023-07-17T06:26:44.205Z,7.10
2023-07-17T06:29:12.118Z,7.20
2023-07-17T06:31:54.429Z,7.88
2023-07-17T06:34:21.781Z,7.72
2023-07-17T06:36:50.221Z,8.18
2023-07-17T06:39:24.314Z,8.15
2023-07-17T06:41:51.663Z,7.57
2023-07-17T06:44:18.817Z,7.28
2023-07-17T06:46:52.423Z,7.47
2023-07-17T06:49:21.742Z,7.28
2023-07-17T06:51:57.399Z,7.28
2023-07-17T06:54:24.581Z,7.55
2023-07-17T06:56:51.783Z,7.28
2023-07-17T06:59:25.215Z,7.25
2023-07-17T07:01:52.547Z,6.65
2023-07-17T07:04:26.183Z,6.10
2023-07-17T07:06:53.442Z,6.45
2023-07-17T07:09:20.579Z,6.18
2023-07-17T07:11:54.133Z,5.32
2023-07-17T07:14:21.401Z,5.85
2023-07-17T07:16:55.266Z,6.20
2023-07-17T07:19:22.566Z,5.57
2023-07-17T07:21:49.698Z,6.05
2023-07-17T07:24:23.299Z,5.70
2023-07-17T07:26:50.491Z,5.43
2023-07-17T07:29:17.722Z,5.68
2023-07-17T07:31:57.290Z,5.43
2023-07-17T07:34:31.282Z,4.85
2023-07-17T07:36:58.555Z,6.20
2023-07-17T07:39:25.856Z,4.80
2023-07-17T07:41:59.145Z,5.10
2023-07-17T07:44:26.491Z,5.25
2023-07-17T07:47:00.208Z,4.85
2023-07-17T07:49:27.516Z,5.18
2023-07-17T07:51:54.664Z,4.78
2023-07-17T07:54:28.260Z,4.40
2023-07-17T07:56:55.598Z,4.82
2023-07-17T07:59:29.536Z,5.10
2023-07-17T08:01:57.129Z,4.57
2023-07-17T08:04:24.417Z,4.30
2023-07-17T08:06:58.251Z,3.72
2023-07-17T08:09:26.284Z,4.82
2023-07-17T08:12:03.413Z,4.82
2023-07-17T08:14:30.641Z,4.53
2023-07-17T08:16:57.843Z,4.50
2023-07-17T08:19:31.376Z,4.78
2023-07-17T08:21:58.662Z,3.83
2023-07-17T08:24:32.384Z,4.72
2023-07-17T08:29:41.253Z,4.60
2023-07-17T08:32:22.488Z,4.95
2023-07-17T08:34:49.703Z,4.07
2023-07-17T08:37:17.075Z,4.68
2023-07-17T08:42:18.675Z,4.40
2023-07-17T08:44:48.495Z,4.75
2023-07-17T08:47:42.348Z,4.55
2023-07-17T08:50:37.256Z,4.20
2023-07-17T08:53:31.350Z,3.80
2023-07-17T08:56:25.199Z,4.28
2023-07-17T08:59:19.250Z,4.63
2023-07-17T09:02:13.212Z,3.50
2023-07-17T09:05:07.354Z,3.95
2023-07-17T09:07:50.219Z,4.22
2023-07-17T09:10:27.518Z,4.13
2023-07-17T09:12:59.440Z,4.15
2023-07-17T09:15:35.335Z,4.25
2023-07-17T09:18:09.425Z,4.43
2023-07-17T09:20:36.906Z,3.90
2023-07-17T09:25:39.352Z,3.67
2023-07-17T09:28:06.625Z,3.95
2023-07-17T09:30:47.459Z,4.10
2023-07-17T09:33:26.118Z,3.92
2023-07-17T09:36:06.412Z,4.28
2023-07-17T09:38:34.070Z,3.80
2023-07-17T09:41:01.257Z,5.05
2023-07-17T09:43:39.357Z,4.63
2023-07-17T09:48:40.354Z,4.63
2023-07-17T09:51:07.484Z,4.05
2023-07-17T09:53:34.836Z,3.90
2023-07-17T09:56:09.340Z,3.88
2023-07-17T09:58:37.000Z,4.18
2023-07-17T10:01:11.428Z,4.85
2023-07-17T10:03:38.751Z,3.97
2023-07-17T10:06:06.293Z,4.43
2023-07-17T10:11:08.046Z,4.07
2023-07-17T10:13:43.429Z,4.75
2023-07-17T10:16:10.925Z,4.55
2023-07-17T10:21:14.581Z,5.00
2023-07-17T10:23:43.483Z,5.00
2023-07-17T10:26:11.183Z,5.20
2023-07-17T10:28:45.319Z,5.30
2023-07-17T10:31:33.450Z,5.32
2023-07-17T10:34:17.330Z,5.18
2023-07-17T10:36:52.222Z,6.05
2023-07-17T10:39:27.409Z,4.95
2023-07-17T10:41:54.633Z,5.35
2023-07-17T10:44:22.146Z,4.88
2023-07-17T10:49:23.624Z,3.95
2023-07-17T10:51:58.406Z,4.10
2023-07-17T10:54:27.682Z,4.30
2023-07-17T10:56:54.884Z,4.00
2023-07-17T10:59:29.444Z,3.78
2023-07-17T11:02:02.026Z,3.78
2023-07-17T11:04:35.390Z,3.15
2023-07-17T11:07:09.470Z,3.58
2023-07-17T11:09:43.334Z,3.30
2023-07-17T11:12:10.534Z,3.25
2023-07-17T11:14:37.798Z,3.70
2023-07-17T11:17:11.479Z,2.80
2023-07-17T11:19:38.735Z,2.55
2023-07-17T11:22:06.041Z,2.80
2023-07-17T11:24:40.328Z,2.55
2023-07-17T11:27:15.300Z,2.67
2023-07-17T11:29:58.449Z,2.70
2023-07-17T11:32:32.306Z,2.50
2023-07-17T11:35:07.491Z,2.90
2023-07-17T11:37:35.898Z,2.45
2023-07-17T11:40:16.419Z,2.80
2023-07-17T11:42:56.843Z,2.47
2023-07-17T11:45:35.852Z,2.50
2023-07-17T11:48:03.898Z,2.90
2023-07-17T11:50:31.159Z,2.45
2023-07-17T11:53:14.430Z,3.45
2023-07-17T11:55:49.275Z,2.58
2023-07-17T11:58:20.129Z,3.20
2023-07-17T12:00:48.746Z,3.53
2023-07-17T12:03:22.464Z,3.33
2023-07-17T12:05:49.753Z,2.97
2023-07-17T12:08:23.473Z,2.97
2023-07-17T12:10:51.564Z,2.88
2023-07-17T12:13:18.744Z,2.97
2023-07-17T12:15:52.423Z,2.65
2023-07-17T12:18:20.203Z,3.17
2023-07-17T12:20:54.399Z,3.03
2023-07-17T12:23:22.870Z,3.20
2023-07-17T12:25:50.080Z,3.28
2023-07-17T12:28:24.464Z,3.05
2023-07-17T12:30:58.769Z,3.15
2023-07-17T12:33:32.502Z,2.83
2023-07-17T12:35:59.714Z,2.75
2023-07-17T12:38:26.847Z,2.90
2023-07-17T12:41:00.467Z,2.75
2023-07-17T12:43:27.746Z,2.75
2023-07-17T12:45:55.004Z,2.10
2023-07-17T12:48:28.438Z,2.53
2023-07-17T12:50:59.047Z,2.50
2023-07-17T12:53:33.402Z,2.60
2023-07-17T12:56:16.112Z,2.55
2023-07-17T12:58:50.389Z,2.00
2023-07-17T13:01:17.955Z,2.38
2023-07-17T13:03:46.203Z,2.35
2023-07-17T13:06:20.613Z,1.80
2023-07-17T13:08:48.518Z,1.88
2023-07-17T13:11:15.916Z,2.47
2023-07-17T13:16:16.704Z,2.85
2023-07-17T13:18:43.828Z,2.08
2023-07-17T13:21:18.685Z,2.22
2023-07-17T13:23:46.127Z,2.22
2023-07-17T13:26:20.369Z,2.38
2023-07-17T13:28:47.655Z,2.45
2023-07-17T13:31:34.439Z,2.55
2023-07-17T13:34:01.811Z,2.60
2023-07-17T13:36:29.316Z,2.63
2023-07-17T13:41:41.595Z,2.65
2023-07-17T13:46:43.460Z,2.55
2023-07-17T13:49:13.668Z,3.00
2023-07-17T13:51:47.385Z,2.58
2023-07-17T13:54:19.963Z,2.90
2023-07-17T13:59:24.563Z,2.65
2023-07-17T14:01:51.784Z,3.10
2023-07-17T14:04:25.584Z,2.33
2023-07-17T14:06:52.897Z,2.75
2023-07-17T14:09:20.054Z,2.47
2023-07-17T14:11:53.684Z,2.53
2023-07-17T14:14:21.316Z,2.47
2023-07-17T14:16:55.470Z,2.67
2023-07-17T14:19:23.958Z,2.30
2023-07-17T14:21:51.223Z,2.67
2023-07-17T14:24:25.598Z,2.88
2023-07-17T14:26:52.941Z,2.95
2023-07-17T14:29:20.063Z,2.80
2023-07-17T14:31:53.417Z,2.53
2023-07-17T14:34:25.679Z,2.03
2023-07-17T14:36:59.432Z,2.47
2023-07-17T14:39:28.407Z,2.63
2023-07-17T14:42:22.629Z,2.35
2023-07-17T14:45:16.343Z,2.40
2023-07-17T14:48:10.587Z,2.83
2023-07-17T14:50:58.168Z,2.63
2023-07-17T14:53:52.386Z,2.28
2023-07-17T14:56:46.336Z,2.97
2023-07-17T14:59:40.489Z,3.63
2023-07-17T15:02:34.385Z,2.45
2023-07-17T15:05:21.629Z,3.17
2023-07-17T15:08:15.374Z,2.63
2023-07-17T15:11:02.634Z,2.72
2023-07-17T15:13:56.463Z,3.30
2023-07-17T15:16:43.646Z,2.90
2023-07-17T15:19:37.328Z,3.15
2023-07-17T15:22:24.810Z,3.05
2023-07-17T15:25:18.397Z,2.58
2023-07-17T15:28:05.849Z,2.33
2023-07-17T15:31:05.370Z,2.42
2023-07-17T15:33:59.513Z,2.63
2023-07-17T15:36:53.349Z,2.60
2023-07-17T15:39:47.425Z,2.05
2023-07-17T15:42:41.341Z,2.53
2023-07-17T15:45:45.439Z,2.30
2023-07-17T15:48:54.362Z,2.28
2023-07-17T15:51:54.419Z,2.20
2023-07-17T15:54:41.658Z,1.92
2023-07-17T15:57:35.450Z,2.83
2023-07-17T16:00:23.018Z,2.55
2023-07-17T16:03:16.954Z,2.67
2023-07-17T16:06:04.170Z,2.50
2023-07-17T16:08:57.673Z,2.28
2023-07-17T16:11:44.843Z,2.72
2023-07-17T16:14:38.478Z,2.60
2023-07-17T16:17:25.965Z,2.40
2023-07-17T16:20:19.606Z,2.72
2023-07-17T16:23:06.890Z,2.40
2023-07-17T16:26:00.477Z,2.67
2023-07-17T16:28:47.699Z,2.55
2023-07-17T16:31:41.692Z,2.28
2023-07-17T16:34:35.415Z,2.30
2023-07-17T16:37:29.507Z,2.85
2023-07-17T16:40:16.743Z,2.50
2023-07-17T16:43:10.873Z,2.40
2023-07-17T16:45:58.162Z,3.65
2023-07-17T16:48:53.459Z,2.28
2023-07-17T16:51:47.405Z,2.33
2023-07-17T16:54:41.458Z,2.83
2023-07-17T16:57:35.357Z,2.60
2023-07-17T17:00:22.659Z,2.70
2023-07-17T17:03:16.636Z,2.78
2023-07-17T17:06:03.931Z,2.60
2023-07-17T17:08:57.394Z,3.03
2023-07-17T17:11:51.548Z,3.03
2023-07-17T17:14:45.401Z,3.10
2023-07-17T17:17:39.556Z,3.38
2023-07-17T17:20:33.407Z,3.38
2023-07-17T17:23:27.460Z,3.42
2023-07-17T17:26:21.698Z,3.47
2023-07-17T17:29:15.592Z,3.05
2023-07-17T17:32:09.305Z,3.42
2023-07-17T17:35:03.508Z,3.85
2023-07-17T17:37:51.742Z,2.72
2023-07-17T17:40:45.543Z,3.45
2023-07-17T17:43:32.642Z,3.17
2023-07-17T17:46:26.629Z,3.28
2023-07-17T17:49:13.736Z,3.08
2023-07-17T17:52:07.629Z,3.17
2023-07-17T17:54:54.726Z,3.72
2023-07-17T17:57:48.525Z,3.42
2023-07-17T18:00:35.784Z,3.42
2023-07-17T18:03:29.665Z,3.15
2023-07-17T18:06:16.847Z,3.83
2023-07-17T18:09:10.640Z,3.70
2023-07-17T18:11:57.806Z,3.70
2023-07-17T18:14:51.478Z,3.67
2023-07-17T18:17:25.450Z,3.20
2023-07-17T18:19:59.494Z,3.05
2023-07-17T18:22:26.752Z,3.22
2023-07-17T18:25:00.557Z,3.53
2023-07-17T18:27:27.777Z,3.45
2023-07-17T18:29:54.926Z,3.55
2023-07-17T18:32:28.730Z,3.60
2023-07-17T18:34:56.015Z,3.58
2023-07-17T18:37:23.230Z,3.15
2023-07-17T18:39:56.496Z,3.40
2023-07-17T18:42:23.702Z,3.38
2023-07-17T18:44:57.624Z,3.65
2023-07-17T18:47:24.871Z,3.40
2023-07-17T18:49:51.993Z,3.53
2023-07-17T18:52:25.578Z,3.35
2023-07-17T18:54:52.838Z,3.33
2023-07-17T18:57:26.614Z,3.13
2023-07-17T18:59:53.819Z,3.30
2023-07-17T19:02:21.013Z,3.65
2023-07-17T19:04:54.590Z,3.78
2023-07-17T19:07:21.879Z,3.28
2023-07-17T19:09:49.004Z,4.00
2023-07-17T19:12:22.701Z,4.38
2023-07-17T19:14:50.035Z,3.80
2023-07-17T19:17:17.654Z,4.88
2023-07-17T19:22:20.071Z,4.07
2023-07-17T19:24:47.878Z,3.85
2023-07-17T19:27:21.507Z,4.38
2023-07-17T19:29:48.692Z,4.32
2023-07-17T19:32:31.756Z,4.28
2023-07-17T19:35:05.601Z,4.28
2023-07-17T19:37:39.736Z,3.55
2023-07-17T19:40:08.039Z,3.40
2023-07-17T19:42:35.187Z,4.82
2023-07-17T19:45:08.522Z,3.65
2023-07-17T19:47:35.854Z,4.47
2023-07-17T19:50:09.687Z,5.18
2023-07-17T19:52:37.020Z,3.92
2023-07-17T19:55:04.235Z,4.20
2023-07-17T19:57:38.559Z,3.55
2023-07-17T20:00:09.451Z,3.55
2023-07-17T20:02:43.753Z,3.38
2023-07-17T20:05:10.994Z,3.63
2023-07-17T20:07:38.203Z,3.53
2023-07-17T20:10:12.548Z,4.00
2023-07-17T20:12:46.526Z,3.83
2023-07-17T20:15:20.707Z,3.28
2023-07-17T20:17:49.051Z,3.35
2023-07-17T20:20:16.323Z,3.70
2023-07-17T20:22:50.660Z,3.40
2023-07-17T20:25:17.949Z,3.67
2023-07-17T20:27:52.645Z,3.97
2023-07-17T20:30:20.078Z,4.13
2023-07-17T20:33:00.605Z,4.57
2023-07-17T20:35:36.476Z,3.95
2023-07-17T20:38:10.677Z,4.40
2023-07-17T20:40:39.020Z,4.13
2023-07-17T20:43:06.176Z,4.93
2023-07-17T20:45:39.539Z,4.90
2023-07-17T20:48:06.911Z,4.93
2023-07-17T20:50:40.682Z,5.28
2023-07-17T20:53:07.980Z,4.95
2023-07-17T20:55:35.358Z,4.78
2023-07-17T20:58:09.644Z,5.93
2023-07-17T21:00:36.914Z,5.20
2023-07-17T21:03:11.717Z,4.85
2023-07-17T21:05:42.376Z,4.57
2023-07-17T21:08:10.563Z,5.15
2023-07-17T21:10:44.620Z,5.05
2023-07-17T21:13:11.813Z,5.15
2023-07-17T21:15:45.613Z,5.00
2023-07-17T21:18:12.927Z,4.88
2023-07-17T21:20:40.052Z,5.28
2023-07-17T21:23:13.799Z,5.00
2023-07-17T21:25:41.111Z,4.47
2023-07-17T21:28:08.326Z,4.75
2023-07-17T21:30:41.616Z,4.50
2023-07-17T21:33:29.499Z,4.45
2023-07-17T21:36:03.803Z,4.43
2023-07-17T21:38:31.125Z,4.85
2023-07-17T21:40:58.335Z,4.53
2023-07-17T21:43:31.572Z,4.53
2023-07-17T21:45:58.835Z,4.38
2023-07-17T21:48:32.602Z,4.10
2023-07-17T21:51:06.538Z,5.15
2023-07-17T21:53:40.612Z,4.70
2023-07-17T21:56:15.666Z,5.05
2023-07-17T21:58:43.012Z,4.95
2023-07-17T22:01:10.269Z,5.03
2023-07-17T22:03:43.647Z,4.63
2023-07-17T22:06:10.827Z,5.03
2023-07-17T22:08:51.806Z,5.07
2023-07-17T22:11:25.649Z,4.53
2023-07-17T22:13:59.943Z,4.85
2023-07-17T22:16:27.207Z,5.28
2023-07-17T22:18:54.488Z,4.60
2023-07-17T22:21:28.684Z,4.03
2023-07-17T22:23:55.897Z,4.35
2023-07-17T22:26:29.727Z,4.13
2023-07-17T22:28:57.049Z,4.43
2023-07-17T22:31:44.722Z,5.07
2023-07-17T22:34:13.030Z,5.20
2023-07-17T22:36:40.164Z,4.65
2023-07-17T22:39:13.682Z,5.70
2023-07-17T22:41:41.767Z,4.18
2023-07-17T22:44:15.796Z,4.88
2023-07-17T22:46:43.766Z,5.18
2023-07-17T22:49:10.942Z,4.70
2023-07-17T22:51:47.629Z,4.20
2023-07-17T22:54:14.960Z,3.85
2023-07-17T22:56:48.624Z,4.75
2023-07-17T22:59:15.880Z,4.35
2023-07-17T23:01:45.220Z,4.78
2023-07-17T23:04:18.686Z,4.00
2023-07-17T23:06:46.357Z,4.30
2023-07-17T23:11:46.982Z,4.57
2023-07-17T23:14:40.603Z,4.68
2023-07-17T23:17:10.649Z,4.70
2023-07-17T23:19:44.703Z,4.63
2023-07-17T23:22:12.051Z,5.10
2023-07-17T23:24:39.175Z,4.95
2023-07-17T23:27:15.632Z,4.28
2023-07-17T23:29:42.825Z,5.28
2023-07-17T23:32:16.758Z,5.13
2023-07-17T23:34:44.061Z,4.63
2023-07-17T23:37:17.768Z,4.82
2023-07-17T23:39:49.815Z,4.32
2023-07-17T23:42:24.746Z,4.90
2023-07-17T23:44:51.981Z,3.95
2023-07-17T23:47:19.248Z,4.68
2023-07-17T23:49:52.892Z,5.38
2023-07-17T23:52:21.432Z,5.35
2023-07-17T23:54:50.612Z,4.93
2023-07-17T23:57:24.720Z,4.57
2023-07-17T23:59:52.412Z,4.70
